Time;durP1;ratioP1;P1;durP2;ratioP2;P2;SDS_P1;SDS_P2;PMS_P1;PMS_P2;Temp;Humidity;BMP_temperature;BMP_pressure;BME280_temperature;BME280_humidity;BME280_pressure;Samples;Min_cycle;Max_cycle;Signal;HPM_P1;HPM_P2
2023/05/20 00:01:26;;;;;;;32.90;19.40;;;;;;;;;;6334751;28;20012;-82
2023/05/20 00:04:27;;;;;;;35.03;22.30;;;;;;;;;;6327535;28;20024;-81
2023/05/20 00:07:27;;;;;;;32.67;21.43;;;;;;;;;;6330896;28;20013;-81
2023/05/20 00:10:27;;;;;;;34.30;22.53;;;;;;;;;;6304335;28;20153;-82
2023/05/20 00:13:27;;;;;;;37.67;22.03;;;;;;;;;;6329564;28;20019;-81
2023/05/20 00:16:27;;;;;;;34.23;22.07;;;;;;;;;;6326493;28;20111;-81
2023/05/20 00:19:28;;;;;;;32.97;21.27;;;;;;;;;;6334924;28;20011;-82
2023/05/20 00:22:28;;;;;;;36.57;22.50;;;;;;;;;;6307447;28;20028;-81
2023/05/20 00:25:30;;;;;;;34.30;22.20;;;;;;;;;;6322775;28;20023;-81
2023/05/20 00:28:30;;;;;;;36.90;20.08;;;;;;;;;;6331077;28;20442;-81
2023/05/20 00:31:30;;;;;;;35.53;19.13;;;;;;;;;;6335725;28;20016;-82
2023/05/20 00:34:31;;;;;;;33.77;20.10;;;;;;;;;;6313671;28;20020;-81
2023/05/20 00:37:31;;;;;;;35.40;22.40;;;;;;;;;;6322206;28;20106;-82
2023/05/20 00:40:31;;;;;;;38.13;22.87;;;;;;;;;;6309747;28;20023;-81
2023/05/20 00:43:31;;;;;;;38.08;23.75;;;;;;;;;;6334461;28;20016;-82
2023/05/20 00:46:32;;;;;;;42.20;23.45;;;;;;;;;;6345733;28;20099;-81
2023/05/20 00:49:32;;;;;;;42.27;21.43;;;;;;;;;;6333215;28;20023;-82
2023/05/20 00:52:32;;;;;;;37.13;22.63;;;;;;;;;;6335351;28;20062;-80
2023/05/20 00:55:32;;;;;;;39.57;24.00;;;;;;;;;;6326977;28;20557;-80
2023/05/20 00:58:37;;;;;;;43.53;26.43;;;;;;;;;;6326270;28;20495;-80
2023/05/20 01:01:39;;;;;;;38.55;23.95;;;;;;;;;;6336954;28;20026;-80
2023/05/20 01:04:40;;;;;;;47.65;26.48;;;;;;;;;;6336015;28;20012;-80
2023/05/20 01:07:41;;;;;;;47.50;28.73;;;;;;;;;;6309431;28;20492;-80
2023/05/20 01:10:43;;;;;;;49.60;27.50;;;;;;;;;;6324572;28;20016;-80
2023/05/20 01:13:47;;;;;;;43.60;25.45;;;;;;;;;;6333133;28;20554;-80
2023/05/20 01:16:48;;;;;;;45.90;27.13;;;;;;;;;;6337540;28;20012;-80
2023/05/20 01:19:49;;;;;;;49.20;26.57;;;;;;;;;;6334767;28;20031;-80
2023/05/20 01:22:53;;;;;;;46.03;25.57;;;;;;;;;;6340272;28;20019;-80
2023/05/20 01:25:54;;;;;;;46.17;27.08;;;;;;;;;;6308073;28;20073;-80
2023/05/20 01:28:56;;;;;;;46.67;25.77;;;;;;;;;;6333139;28;20469;-80
2023/05/20 01:31:58;;;;;;;47.25;27.95;;;;;;;;;;6325610;28;20042;-80
2023/05/20 01:34:59;;;;;;;39.88;22.00;;;;;;;;;;6337778;28;20027;-80
2023/05/20 01:38:00;;;;;;;48.47;29.33;;;;;;;;;;6322085;28;20402;-80
2023/05/20 01:41:01;;;;;;;46.50;27.38;;;;;;;;;;6326613;28;20028;-80
2023/05/20 01:44:01;;;;;;;44.92;26.48;;;;;;;;;;6319870;28;20016;-80
2023/05/20 01:47:02;;;;;;;41.30;23.33;;;;;;;;;;6334875;28;20081;-80
2023/05/20 01:50:02;;;;;;;38.47;22.13;;;;;;;;;;6316885;28;20506;-80
2023/05/20 01:53:02;;;;;;;37.87;23.70;;;;;;;;;;6330166;28;20089;-79
2023/05/20 01:56:04;;;;;;;39.77;23.00;;;;;;;;;;6324736;28;20095;-79
2023/05/20 01:59:04;;;;;;;;;;;;;;;;;;6334964;28;20028;-79
2023/05/20 02:02:04;;;;;;;34.08;19.35;;;;;;;;;;6303794;28;19916;-81
2023/05/20 02:05:05;;;;;;;34.77;20.20;;;;;;;;;;6326344;28;20537;-81
2023/05/20 02:08:06;;;;;;;30.63;17.83;;;;;;;;;;6328778;28;20015;-81
2023/05/20 02:11:07;;;;;;;33.88;18.67;;;;;;;;;;6334631;28;20073;-81
2023/05/20 02:14:07;;;;;;;30.20;18.35;;;;;;;;;;6325581;28;20027;-81
2023/05/20 02:17:07;;;;;;;32.57;17.47;;;;;;;;;;6335390;28;20023;-81
2023/05/20 02:20:07;;;;;;;31.70;20.43;;;;;;;;;;6320705;28;20023;-81
2023/05/20 02:23:08;;;;;;;28.97;18.37;;;;;;;;;;6327073;27;20030;-81
2023/05/20 02:26:08;;;;;;;27.83;16.27;;;;;;;;;;6324792;28;20027;-81
2023/05/20 02:29:08;;;;;;;34.60;20.03;;;;;;;;;;6317638;28;20069;-80
2023/05/20 02:32:08;;;;;;;22.37;12.37;;;;;;;;;;6334768;28;20157;-80
2023/05/20 02:35:08;;;;;;;26.37;16.23;;;;;;;;;;6327159;28;20030;-80
2023/05/20 02:38:09;;;;;;;24.38;14.55;;;;;;;;;;6333379;28;20027;-81
2023/05/20 02:41:10;;;;;;;22.60;14.10;;;;;;;;;;6331576;28;20111;-82
2023/05/20 02:44:11;;;;;;;25.47;14.50;;;;;;;;;;6323707;28;20098;-81
2023/05/20 02:47:12;;;;;;;26.30;14.57;;;;;;;;;;6326206;28;20054;-81
2023/05/20 02:50:13;;;;;;;22.80;12.77;;;;;;;;;;6301804;28;20067;-81
2023/05/20 02:53:13;;;;;;;21.07;12.60;;;;;;;;;;6334514;27;20023;-81
2023/05/20 02:56:13;;;;;;;21.50;14.10;;;;;;;;;;6327352;28;20034;-81
2023/05/20 02:59:14;;;;;;;21.47;13.30;;;;;;;;;;6322659;28;20089;-81
2023/05/20 03:02:15;;;;;;;21.70;13.63;;;;;;;;;;6329447;28;20063;-81
2023/05/20 03:05:15;;;;;;;14.80;9.32;;;;;;;;;;6310369;28;20027;-81
2023/05/20 03:08:15;;;;;;;18.63;10.60;;;;;;;;;;6331242;28;20374;-81
2023/05/20 03:11:15;;;;;;;17.87;10.30;;;;;;;;;;6326332;28;20050;-80
2023/05/20 03:14:15;;;;;;;19.30;9.80;;;;;;;;;;6324634;28;20028;-80
2023/05/20 03:17:16;;;;;;;18.23;11.02;;;;;;;;;;6326357;28;20047;-79
2023/05/20 03:20:16;;;;;;;18.05;11.43;;;;;;;;;;6311073;28;20015;-81
2023/05/20 03:23:16;;;;;;;21.20;12.27;;;;;;;;;;6332913;28;20107;-81
2023/05/20 03:26:17;;;;;;;19.40;12.07;;;;;;;;;;6329887;28;20031;-82
2023/05/20 03:29:17;;;;;;;18.63;10.13;;;;;;;;;;6317591;28;20091;-81
2023/05/20 03:32:17;;;;;;;19.77;11.55;;;;;;;;;;6305437;28;20043;-81
2023/05/20 03:35:17;;;;;;;16.10;9.90;;;;;;;;;;6330495;28;20073;-82
2023/05/20 03:38:17;;;;;;;17.90;9.90;;;;;;;;;;6324466;28;20437;-81
2023/05/20 03:41:18;;;;;;;18.90;9.73;;;;;;;;;;6325943;28;20124;-81
2023/05/20 03:44:18;;;;;;;16.27;10.47;;;;;;;;;;6331112;28;20032;-82
2023/05/20 03:47:18;;;;;;;18.50;10.13;;;;;;;;;;6318943;28;20024;-82
2023/05/20 03:50:19;;;;;;;20.50;11.37;;;;;;;;;;6341090;28;20067;-81
2023/05/20 03:53:19;;;;;;;20.33;11.80;;;;;;;;;;6309836;28;20027;-82
2023/05/20 03:56:20;;;;;;;17.33;10.23;;;;;;;;;;6335846;28;20073;-81
2023/05/20 03:59:21;;;;;;;13.27;7.93;;;;;;;;;;6329524;28;20023;-82
2023/05/20 04:02:21;;;;;;;17.90;9.82;;;;;;;;;;6329370;28;20024;-82
2023/05/20 04:05:22;;;;;;;17.02;10.48;;;;;;;;;;6311509;28;20051;-82
2023/05/20 04:08:24;;;;;;;15.05;9.70;;;;;;;;;;6323953;28;20027;-82
2023/05/20 04:11:25;;;;;;;18.20;10.88;;;;;;;;;;6335280;28;20757;-82
2023/05/20 04:14:25;;;;;;;20.70;11.95;;;;;;;;;;6328628;28;20066;-82
2023/05/20 04:17:27;;;;;;;17.33;9.60;;;;;;;;;;6330088;28;20377;-81
2023/05/20 04:20:27;;;;;;;;;;;;;;;;;;6327345;28;20500;-81
2023/05/20 04:23:27;;;;;;;18.10;10.68;;;;;;;;;;6335740;28;19942;-82
2023/05/20 04:26:27;;;;;;;16.55;10.77;;;;;;;;;;6341655;28;20015;-82
2023/05/20 04:29:28;;;;;;;17.97;11.80;;;;;;;;;;6322907;28;20470;-82
2023/05/20 04:32:29;;;;;;;17.02;11.05;;;;;;;;;;6329070;28;20024;-81
2023/05/20 04:35:29;;;;;;;14.53;9.83;;;;;;;;;;6336631;28;20429;-82
2023/05/20 04:38:31;;;;;;;16.53;9.17;;;;;;;;;;6334716;28;20540;-82
2023/05/20 04:41:31;;;;;;;17.13;9.10;;;;;;;;;;6328034;28;20146;-82
2023/05/20 04:44:31;;;;;;;15.77;10.25;;;;;;;;;;6320783;28;20819;-82
2023/05/20 04:47:37;;;;;;;14.20;9.77;;;;;;;;;;6325295;28;20024;-82
2023/05/20 04:50:38;;;;;;;17.73;9.57;;;;;;;;;;6315252;28;20056;-82
2023/05/20 04:53:39;;;;;;;12.60;8.80;;;;;;;;;;6342095;28;20019;-82
2023/05/20 04:56:39;;;;;;;15.55;9.43;;;;;;;;;;6339546;28;20474;-82
2023/05/20 04:59:39;;;;;;;14.63;9.10;;;;;;;;;;6326824;28;20050;-82
2023/05/20 05:02:40;;;;;;;15.57;8.93;;;;;;;;;;6312408;28;20372;-82
2023/05/20 05:05:41;;;;;;;13.23;9.80;;;;;;;;;;6330555;28;20009;-82
2023/05/20 05:08:41;;;;;;;14.80;8.83;;;;;;;;;;6333228;28;20125;-82
2023/05/20 05:11:41;;;;;;;16.43;9.30;;;;;;;;;;6309772;28;20039;-82
2023/05/20 05:14:41;;;;;;;16.92;10.82;;;;;;;;;;6316771;28;20470;-82
2023/05/20 05:17:41;;;;;;;14.70;10.33;;;;;;;;;;6311887;28;20020;-82
2023/05/20 05:20:42;;;;;;;10.18;6.95;;;;;;;;;;6337559;28;20073;-81
2023/05/20 05:23:42;;;;;;;14.18;8.48;;;;;;;;;;6333489;28;20537;-82
2023/05/20 05:26:42;;;;;;;16.90;9.97;;;;;;;;;;6332737;28;20024;-82
2023/05/20 05:29:42;;;;;;;14.33;10.03;;;;;;;;;;6315286;28;20018;-82
2023/05/20 05:32:43;;;;;;;14.63;9.83;;;;;;;;;;6314464;28;20022;-82
2023/05/20 05:35:43;;;;;;;14.93;9.57;;;;;;;;;;6338114;28;20012;-82
2023/05/20 05:38:43;;;;;;;14.43;8.97;;;;;;;;;;6330995;27;20027;-82
2023/05/20 05:41:43;;;;;;;17.10;10.77;;;;;;;;;;6331750;28;20459;-79
2023/05/20 05:44:44;;;;;;;16.83;10.50;;;;;;;;;;6331729;28;20488;-79
2023/05/20 05:47:45;;;;;;;16.03;10.03;;;;;;;;;;6325905;28;20107;-79
2023/05/20 05:50:45;;;;;;;16.73;10.60;;;;;;;;;;6326070;28;20402;-79
2023/05/20 05:53:46;;;;;;;17.37;10.93;;;;;;;;;;6325404;28;20043;-79
2023/05/20 05:56:46;;;;;;;16.90;10.47;;;;;;;;;;6328376;28;20485;-79
2023/05/20 05:59:46;;;;;;;17.77;11.57;;;;;;;;;;6324044;28;20024;-79
2023/05/20 06:02:46;;;;;;;16.93;10.80;;;;;;;;;;6326129;28;20093;-79
2023/05/20 06:05:46;;;;;;;17.13;10.00;;;;;;;;;;6334236;28;20110;-79
2023/05/20 06:08:47;;;;;;;19.00;11.03;;;;;;;;;;6307680;28;20370;-79
2023/05/20 06:11:47;;;;;;;17.17;11.30;;;;;;;;;;6325385;28;20478;-79
2023/05/20 06:14:47;;;;;;;19.17;11.63;;;;;;;;;;6320415;28;20040;-79
2023/05/20 06:17:47;;;;;;;18.27;11.57;;;;;;;;;;6319665;28;20020;-79
2023/05/20 06:20:53;;;;;;;20.93;12.97;;;;;;;;;;6334566;27;20094;-79
2023/05/20 06:23:53;;;;;;;22.85;13.43;;;;;;;;;;6320492;28;20067;-79
2023/05/20 06:26:53;;;;;;;22.13;13.87;;;;;;;;;;6312115;28;20498;-79
2023/05/20 06:29:54;;;;;;;19.67;12.87;;;;;;;;;;6332670;28;20390;-79
2023/05/20 06:32:54;;;;;;;21.00;13.30;;;;;;;;;;6328463;28;20070;-79
2023/05/20 06:35:55;;;;;;;23.60;14.90;;;;;;;;;;6306741;28;20097;-79
2023/05/20 06:38:55;;;;;;;23.80;12.93;;;;;;;;;;6335140;28;20580;-78
2023/05/20 06:41:55;;;;;;;20.48;12.75;;;;;;;;;;6331362;28;20019;-79
2023/05/20 06:44:56;;;;;;;25.73;14.57;;;;;;;;;;6326841;28;20393;-79
2023/05/20 06:47:57;;;;;;;27.30;14.20;;;;;;;;;;6327819;28;20015;-79
2023/05/20 06:50:57;;;;;;;25.53;13.27;;;;;;;;;;6333026;28;20036;-81
2023/05/20 06:53:57;;;;;;;33.63;14.47;;;;;;;;;;6332536;28;20027;-81
2023/05/20 06:56:57;;;;;;;24.03;14.03;;;;;;;;;;6334191;27;20050;-81
2023/05/20 06:59:57;;;;;;;22.47;13.33;;;;;;;;;;6334298;28;20493;-82
2023/05/20 07:02:58;;;;;;;20.57;12.83;;;;;;;;;;6323596;28;20031;-81
2023/05/20 07:05:59;;;;;;;21.17;11.77;;;;;;;;;;6334717;27;20024;-81
2023/05/20 07:08:59;;;;;;;25.08;15.20;;;;;;;;;;6334239;28;20062;-82
2023/05/20 07:12:00;;;;;;;18.93;13.13;;;;;;;;;;6325967;28;20016;-82
2023/05/20 07:15:00;;;;;;;22.63;15.07;;;;;;;;;;6325557;28;20055;-82
2023/05/20 07:18:01;;;;;;;29.10;16.90;;;;;;;;;;6330450;28;20281;-82
2023/05/20 07:21:01;;;;;;;21.03;15.40;;;;;;;;;;6327491;28;20394;-82
2023/05/20 07:24:01;;;;;;;24.83;15.50;;;;;;;;;;6321621;28;20039;-81
2023/05/20 07:27:01;;;;;;;25.50;16.40;;;;;;;;;;6334669;28;20414;-82
2023/05/20 07:30:02;;;;;;;27.90;16.63;;;;;;;;;;6321246;28;20024;-81
2023/05/20 07:33:03;;;;;;;25.07;16.70;;;;;;;;;;6328428;28;20189;-81
2023/05/20 07:36:04;;;;;;;26.92;15.20;;;;;;;;;;6311439;28;20098;-81
2023/05/20 07:39:04;;;;;;;24.07;16.63;;;;;;;;;;6325279;28;20490;-81
2023/05/20 07:42:04;;;;;;;23.93;16.27;;;;;;;;;;6335102;28;20381;-82
2023/05/20 07:45:05;;;;;;;22.67;14.23;;;;;;;;;;6309347;28;20037;-82
2023/05/20 07:48:07;;;;;;;26.77;15.50;;;;;;;;;;6335309;28;20004;-81
2023/05/20 07:51:07;;;;;;;28.67;17.30;;;;;;;;;;6330476;28;20115;-82
2023/05/20 07:54:07;;;;;;;23.37;14.97;;;;;;;;;;6331734;28;20027;-82
2023/05/20 07:57:08;;;;;;;24.08;15.45;;;;;;;;;;6309757;28;20020;-82
2023/05/20 08:00:08;;;;;;;21.50;14.20;;;;;;;;;;6331277;28;20012;-80
2023/05/20 08:03:09;;;;;;;23.60;14.03;;;;;;;;;;6318204;28;20019;-79
2023/05/20 08:06:09;;;;;;;19.27;10.57;;;;;;;;;;6339819;28;20046;-79
2023/05/20 08:09:10;;;;;;;20.50;13.57;;;;;;;;;;6327361;28;20020;-79
2023/05/20 08:12:10;;;;;;;25.73;15.60;;;;;;;;;;6329811;28;20050;-79
2023/05/20 08:15:11;;;;;;;22.07;15.30;;;;;;;;;;6330376;28;20102;-80
2023/05/20 08:18:11;;;;;;;20.73;14.52;;;;;;;;;;6325288;28;20069;-79
2023/05/20 08:21:12;;;;;;;19.77;14.30;;;;;;;;;;6326060;28;20016;-80
2023/05/20 08:24:12;;;;;;;22.27;14.15;;;;;;;;;;6336023;28;20047;-79
2023/05/20 08:27:13;;;;;;;24.60;15.43;;;;;;;;;;6328572;28;20024;-79
2023/05/20 08:30:13;;;;;;;23.57;15.27;;;;;;;;;;6325816;28;20024;-79
2023/05/20 08:33:14;;;;;;;23.08;13.75;;;;;;;;;;6326020;28;20509;-79
2023/05/20 08:36:15;;;;;;;25.13;14.23;;;;;;;;;;6300303;28;20031;-80
2023/05/20 08:39:15;;;;;;;25.50;15.25;;;;;;;;;;6334058;28;20023;-79
2023/05/20 08:42:19;;;;;;;22.33;16.07;;;;;;;;;;6323243;28;20055;-79
2023/05/20 08:45:20;;;;;;;28.48;16.15;;;;;;;;;;6335612;28;20591;-79
2023/05/20 08:48:21;;;;;;;29.92;15.55;;;;;;;;;;6337658;28;20031;-79
2023/05/20 08:51:22;;;;;;;;;;;;;;;;;;6332042;28;20032;-79
2023/05/20 08:54:25;;;;;;;22.17;15.02;;;;;;;;;;6333810;27;20331;-79
2023/05/20 08:57:27;;;;;;;20.70;13.93;;;;;;;;;;6335381;28;20047;-79
2023/05/20 09:00:27;;;;;;;20.93;15.33;;;;;;;;;;6329670;28;20107;-82
2023/05/20 09:03:29;;;;;;;21.10;14.63;;;;;;;;;;6339177;28;20035;-80
2023/05/20 09:06:30;;;;;;;;;;;;;;;;;;6330802;28;20019;-81
2023/05/20 09:09:32;;;;;;;22.08;14.60;;;;;;;;;;6330163;28;19947;-83
2023/05/20 09:12:32;;;;;;;19.42;13.57;;;;;;;;;;6343957;28;20023;-79
2023/05/20 09:15:33;;;;;;;20.80;13.47;;;;;;;;;;6341738;28;20027;-80
2023/05/20 09:18:36;;;;;;;19.93;15.00;;;;;;;;;;6316363;28;20024;-79
2023/05/20 09:21:37;;;;;;;22.48;15.10;;;;;;;;;;6335454;28;20036;-80
2023/05/20 09:24:40;;;;;;;22.40;15.45;;;;;;;;;;6314218;28;20016;-79
2023/05/20 09:27:40;;;;;;;22.15;14.18;;;;;;;;;;6337434;28;20035;-79
2023/05/20 09:30:40;;;;;;;20.57;13.17;;;;;;;;;;6326384;28;20054;-79
2023/05/20 09:33:41;;;;;;;23.47;15.03;;;;;;;;;;6331982;28;20031;-79
2023/05/20 09:36:42;;;;;;;19.27;13.60;;;;;;;;;;6321967;28;20051;-79
2023/05/20 09:39:50;;;;;;;20.55;15.15;;;;;;;;;;6332227;28;20016;-79
2023/05/20 09:42:52;;;;;;;24.15;14.32;;;;;;;;;;6328557;28;20363;-79
2023/05/20 09:45:54;;;;;;;20.10;13.48;;;;;;;;;;6337883;28;20438;-79
2023/05/20 09:48:54;;;;;;;;;;;;;;;;;;6314635;28;20028;-79
2023/05/20 09:51:55;;;;;;;18.33;13.82;;;;;;;;;;6327896;28;19927;-79
2023/05/20 09:54:57;;;;;;;18.55;13.23;;;;;;;;;;6330975;28;20020;-79
2023/05/20 09:58:01;;;;;;;19.88;14.32;;;;;;;;;;6327093;28;20011;-79
2023/05/20 10:01:01;;;;;;;18.23;12.88;;;;;;;;;;6339913;28;20069;-79
2023/05/20 10:04:04;;;;;;;19.17;14.37;;;;;;;;;;6324287;28;20024;-79
2023/05/20 10:07:08;;;;;;;21.65;13.65;;;;;;;;;;6310672;28;20113;-79
2023/05/20 10:10:20;;;;;;;25.00;15.38;;;;;;;;;;6323840;28;20066;-79
2023/05/20 10:13:20;;;;;;;24.40;15.93;;;;;;;;;;6331893;27;20070;-79
2023/05/20 10:16:36;;;;;;;22.75;15.88;;;;;;;;;;6329583;28;20024;-79
2023/05/20 10:19:36;;;;;;;27.30;17.17;;;;;;;;;;6339016;28;20019;-79
2023/05/20 10:22:38;;;;;;;26.17;17.83;;;;;;;;;;6319375;28;20382;-79
2023/05/20 10:25:48;;;;;;;27.10;18.67;;;;;;;;;;6325046;28;20043;-79
2023/05/20 10:28:49;;;;;;;28.67;18.77;;;;;;;;;;6326850;28;20020;-79
2023/05/20 10:31:50;;;;;;;31.57;22.23;;;;;;;;;;6328271;28;20043;-79
2023/05/20 10:34:50;;;;;;;36.92;23.50;;;;;;;;;;6328336;28;20045;-79
2023/05/20 10:37:51;;;;;;;27.43;19.00;;;;;;;;;;6337442;28;20102;-79
2023/05/20 10:40:51;;;;;;;30.13;20.87;;;;;;;;;;6331957;28;20027;-79
2023/05/20 10:43:59;;;;;;;26.00;18.67;;;;;;;;;;6333323;28;20024;-79
2023/05/20 10:47:02;;;;;;;26.00;18.17;;;;;;;;;;6331312;28;20020;-79
2023/05/20 10:50:06;;;;;;;30.30;19.25;;;;;;;;;;6299987;28;20032;-79
2023/05/20 10:53:10;;;;;;;32.75;20.00;;;;;;;;;;6329941;28;20039;-79
2023/05/20 10:56:17;;;;;;;32.03;21.50;;;;;;;;;;6318744;28;20062;-79
2023/05/20 10:59:18;;;;;;;28.00;20.92;;;;;;;;;;6301727;28;20031;-79
2023/05/20 11:02:19;;;;;;;29.77;19.40;;;;;;;;;;6324880;28;20494;-79
2023/05/20 11:05:19;;;;;;;29.77;18.55;;;;;;;;;;6327435;28;20359;-79
2023/05/20 11:08:20;;;;;;;28.47;19.77;;;;;;;;;;6306613;28;20020;-79
2023/05/20 11:11:22;;;;;;;26.55;19.02;;;;;;;;;;6322440;28;20024;-79
2023/05/20 11:14:22;;;;;;;31.48;20.15;;;;;;;;;;6336686;28;20115;-79
2023/05/20 11:17:23;;;;;;;31.23;20.35;;;;;;;;;;6333030;28;20029;-79
2023/05/20 11:20:23;;;;;;;27.57;19.67;;;;;;;;;;6339326;28;20031;-80
2023/05/20 11:23:25;;;;;;;27.40;19.83;;;;;;;;;;6330966;28;20034;-79
2023/05/20 11:26:25;;;;;;;27.85;19.42;;;;;;;;;;6325591;28;20081;-78
2023/05/20 11:29:25;;;;;;;26.53;18.67;;;;;;;;;;6333479;28;20024;-78
2023/05/20 11:32:26;;;;;;;33.53;18.53;;;;;;;;;;6315939;28;20135;-80
2023/05/20 11:35:28;;;;;;;26.20;19.50;;;;;;;;;;6326659;28;20096;-81
2023/05/20 11:38:29;;;;;;;25.75;18.58;;;;;;;;;;6324633;28;20115;-81
2023/05/20 11:41:29;;;;;;;26.48;19.15;;;;;;;;;;6331844;28;20034;-80
2023/05/20 11:44:29;;;;;;;25.43;17.93;;;;;;;;;;6332496;28;20024;-80
2023/05/20 11:47:31;;;;;;;24.43;16.87;;;;;;;;;;6320968;28;20028;-79
2023/05/20 11:50:31;;;;;;;;;;;;;;;;;;6327181;28;20059;-80
2023/05/20 11:53:31;;;;;;;26.00;17.27;;;;;;;;;;6328804;28;19907;-80
2023/05/20 11:56:36;;;;;;;26.77;17.33;;;;;;;;;;6326696;28;20106;-82
2023/05/20 11:59:36;;;;;;;24.83;16.70;;;;;;;;;;6304268;28;20389;-80
2023/05/20 12:02:36;;;;;;;23.97;17.63;;;;;;;;;;6323377;28;20066;-80
2023/05/20 12:05:38;;;;;;;20.83;15.30;;;;;;;;;;6316962;28;20008;-81
2023/05/20 12:08:38;;;;;;;24.08;17.13;;;;;;;;;;6320780;28;20028;-81
2023/05/20 12:11:40;;;;;;;25.03;16.43;;;;;;;;;;6334598;28;20373;-80
2023/05/20 12:14:40;;;;;;;23.23;15.98;;;;;;;;;;6324909;28;20043;-81
2023/05/20 12:17:44;;;;;;;21.05;16.52;;;;;;;;;;6333115;28;20433;-81
2023/05/20 12:20:45;;;;;;;22.67;16.35;;;;;;;;;;6338981;28;20051;-82
2023/05/20 12:23:45;;;;;;;22.63;17.15;;;;;;;;;;6335967;28;20487;-81
2023/05/20 12:26:45;;;;;;;23.57;16.80;;;;;;;;;;6305517;28;20020;-82
2023/05/20 12:29:45;;;;;;;27.43;17.70;;;;;;;;;;6329875;28;20015;-81
2023/05/20 12:32:46;;;;;;;24.90;16.20;;;;;;;;;;6335709;28;20057;-80
2023/05/20 12:35:47;;;;;;;19.83;15.65;;;;;;;;;;6329561;28;20277;-80
2023/05/20 12:38:47;;;;;;;21.30;15.33;;;;;;;;;;6327084;28;20028;-81
2023/05/20 12:41:47;;;;;;;25.80;16.27;;;;;;;;;;6329838;28;20065;-81
2023/05/20 12:44:47;;;;;;;21.15;15.82;;;;;;;;;;6333871;28;20073;-81
2023/05/20 12:47:47;;;;;;;22.20;16.00;;;;;;;;;;6323400;28;20020;-81
2023/05/20 12:50:48;;;;;;;21.37;15.40;;;;;;;;;;6328402;28;20510;-81
2023/05/20 12:53:48;;;;;;;21.20;16.25;;;;;;;;;;6335365;28;20035;-81
2023/05/20 12:56:48;;;;;;;23.30;16.10;;;;;;;;;;6337539;28;20142;-81
2023/05/20 12:59:48;;;;;;;21.40;14.80;;;;;;;;;;6335992;28;20032;-81
2023/05/20 13:02:49;;;;;;;19.00;14.00;;;;;;;;;;6338688;28;20046;-81
2023/05/20 13:05:49;;;;;;;21.30;14.53;;;;;;;;;;6334064;28;20016;-81
2023/05/20 13:08:49;;;;;;;24.07;14.57;;;;;;;;;;6306365;28;20020;-81
2023/05/20 13:11:49;;;;;;;;;;;;;;;;;;6337373;28;20027;-81
2023/05/20 13:14:50;;;;;;;22.20;14.65;;;;;;;;;;6342623;28;20382;-81
2023/05/20 13:17:50;;;;;;;;;;;;;;;;;;6331517;28;20098;-81
2023/05/20 13:20:50;;;;;;;21.77;14.93;;;;;;;;;;6327376;28;19908;-81
2023/05/20 13:23:50;;;;;;;;;;;;;;;;;;6323762;28;20468;-81
2023/05/20 13:26:50;;;;;;;21.48;13.68;;;;;;;;;;6342605;27;19912;-81
2023/05/20 13:29:50;;;;;;;;;;;;;;;;;;6330788;28;20465;-80
2023/05/20 13:32:51;;;;;;;21.02;14.13;;;;;;;;;;6343168;28;20389;-81
2023/05/20 13:35:51;;;;;;;;;;;;;;;;;;6336743;28;20034;-81
2023/05/20 13:38:51;;;;;;;19.30;12.20;;;;;;;;;;6343878;28;19915;-81
2023/05/20 13:41:53;;;;;;;;;;;;;;;;;;6330850;28;20402;-81
2023/05/20 13:44:56;;;;;;;19.13;13.55;;;;;;;;;;6329353;28;20010;-81
2023/05/20 13:47:56;;;;;;;22.88;13.80;;;;;;;;;;6341896;28;20656;-80
2023/05/20 13:50:56;;;;;;;;;;;;;;;;;;6343448;28;20055;-81
2023/05/20 13:53:56;;;;;;;19.15;12.68;;;;;;;;;;6339061;28;19912;-81
2023/05/20 13:56:56;;;;;;;;;;;;;;;;;;6327153;28;20073;-81
2023/05/20 13:59:56;;;;;;;19.48;12.73;;;;;;;;;;6309598;28;19911;-80
2023/05/20 14:02:57;;;;;;;;;;;;;;;;;;6339370;28;20024;-80
2023/05/20 14:05:58;;;;;;;16.38;11.55;;;;;;;;;;6323972;28;20362;-80
2023/05/20 14:08:58;;;;;;;;;;;;;;;;;;6326946;28;20031;-81
2023/05/20 14:11:58;;;;;;;21.17;11.40;;;;;;;;;;6326667;28;19903;-81
2023/05/20 14:14:59;;;;;;;;;;;;;;;;;;6337450;28;20019;-81
2023/05/20 14:17:59;;;;;;;16.80;11.07;;;;;;;;;;6331528;28;19908;-81
2023/05/20 14:20:59;;;;;;;;;;;;;;;;;;6343954;28;20042;-81
2023/05/20 14:24:00;;;;;;;17.40;10.48;;;;;;;;;;6327507;27;19912;-81
2023/05/20 14:27:00;;;;;;;;;;;;;;;;;;6337910;28;20024;-81
2023/05/20 14:30:00;;;;;;;17.05;11.88;;;;;;;;;;6310645;28;19957;-81
2023/05/20 14:33:02;;;;;;;;;;;;;;;;;;6336238;27;20024;-81
2023/05/20 14:36:03;;;;;;;18.95;12.73;;;;;;;;;;6334476;28;20428;-81
2023/05/20 14:39:03;;;;;;;;;;;;;;;;;;6331048;28;20023;-81
2023/05/20 14:42:03;;;;;;;16.33;12.32;;;;;;;;;;6323922;28;19904;-81
2023/05/20 14:45:04;;;;;;;18.15;12.20;;;;;;;;;;6337782;28;20024;-81
2023/05/20 14:48:04;;;;;;;14.98;11.70;;;;;;;;;;6308656;27;20494;-81
2023/05/20 14:51:04;;;;;;;16.23;11.70;;;;;;;;;;6327918;28;20095;-81
2023/05/20 14:54:05;;;;;;;17.23;11.60;;;;;;;;;;6314277;28;20024;-81
2023/05/20 14:57:05;;;;;;;17.55;11.73;;;;;;;;;;6331819;28;20108;-81
2023/05/20 15:00:06;;;;;;;15.97;10.60;;;;;;;;;;6340828;28;20016;-78
2023/05/20 15:03:06;;;;;;;15.15;10.95;;;;;;;;;;6328353;28;20619;-78
2023/05/20 15:06:06;;;;;;;17.30;12.20;;;;;;;;;;6330047;28;20024;-77
2023/05/20 15:09:06;;;;;;;16.70;11.90;;;;;;;;;;6332452;28;20034;-77
2023/05/20 15:12:08;;;;;;;19.27;11.80;;;;;;;;;;6321079;28;20046;-77
2023/05/20 15:15:08;;;;;;;14.43;11.48;;;;;;;;;;6324943;28;20157;-77
2023/05/20 15:18:09;;;;;;;20.08;11.82;;;;;;;;;;6329691;28;20019;-77
2023/05/20 15:21:10;;;;;;;15.68;11.27;;;;;;;;;;6338542;28;20042;-77
2023/05/20 15:24:10;;;;;;;17.97;11.83;;;;;;;;;;6331845;28;20023;-78
2023/05/20 15:27:10;;;;;;;16.67;12.53;;;;;;;;;;6323935;28;20019;-77
2023/05/20 15:30:11;;;;;;;18.93;10.27;;;;;;;;;;6313869;28;20024;-77
2023/05/20 15:33:11;;;;;;;14.93;11.43;;;;;;;;;;6328298;28;20048;-78
2023/05/20 15:36:11;;;;;;;21.97;11.77;;;;;;;;;;6300875;28;20797;-78
2023/05/20 15:39:11;;;;;;;20.23;10.37;;;;;;;;;;6334873;28;20587;-79
2023/05/20 15:42:12;;;;;;;16.77;12.03;;;;;;;;;;6326185;28;20087;-78
2023/05/20 15:45:13;;;;;;;17.42;10.70;;;;;;;;;;6325137;28;20011;-79
2023/05/20 15:48:13;;;;;;;17.33;12.30;;;;;;;;;;6333051;28;20011;-79
2023/05/20 15:51:13;;;;;;;15.60;12.17;;;;;;;;;;6345383;28;20505;-78
2023/05/20 15:54:14;;;;;;;17.37;11.33;;;;;;;;;;6331533;27;20047;-79
2023/05/20 15:57:14;;;;;;;16.57;12.13;;;;;;;;;;6323892;28;20020;-79
2023/05/20 16:00:16;;;;;;;16.33;11.80;;;;;;;;;;6332568;28;20049;-82
2023/05/20 16:03:17;;;;;;;17.92;12.40;;;;;;;;;;6336589;28;20012;-82
2023/05/20 16:06:17;;;;;;;18.00;12.27;;;;;;;;;;6332048;28;20027;-81
2023/05/20 16:09:17;;;;;;;15.60;11.40;;;;;;;;;;6311487;28;20397;-82
2023/05/20 16:12:17;;;;;;;16.67;11.07;;;;;;;;;;6329232;28;20028;-82
2023/05/20 16:15:18;;;;;;;14.37;11.77;;;;;;;;;;6304661;28;20114;-82
2023/05/20 16:18:18;;;;;;;16.25;11.18;;;;;;;;;;6339066;28;20019;-82
2023/05/20 16:21:18;;;;;;;16.23;11.53;;;;;;;;;;6344414;28;20024;-82
2023/05/20 16:24:19;;;;;;;17.47;12.20;;;;;;;;;;6334744;28;20106;-82
2023/05/20 16:27:19;;;;;;;17.10;12.37;;;;;;;;;;6306766;28;20049;-83
2023/05/20 16:30:19;;;;;;;18.80;11.27;;;;;;;;;;6320895;28;20072;-82
2023/05/20 16:33:20;;;;;;;16.63;10.55;;;;;;;;;;6336976;28;20016;-83
2023/05/20 16:36:20;;;;;;;21.60;11.90;;;;;;;;;;6326979;28;20428;-82
2023/05/20 16:39:21;;;;;;;17.33;13.13;;;;;;;;;;6328930;28;20016;-82
2023/05/20 16:42:21;;;;;;;18.52;11.82;;;;;;;;;;6329300;28;20024;-82
2023/05/20 16:45:21;;;;;;;18.93;12.70;;;;;;;;;;6338129;28;20085;-82
2023/05/20 16:48:21;;;;;;;17.70;13.43;;;;;;;;;;6317008;28;20012;-82
2023/05/20 16:51:23;;;;;;;18.03;13.37;;;;;;;;;;6322612;28;20038;-82
2023/05/20 16:54:24;;;;;;;17.85;12.90;;;;;;;;;;6308159;28;20063;-82
2023/05/20 16:57:25;;;;;;;19.33;12.68;;;;;;;;;;6302201;28;20046;-82
2023/05/20 17:00:26;;;;;;;17.88;12.95;;;;;;;;;;6312539;28;20056;-82
2023/05/20 17:03:26;;;;;;;35.13;24.87;;;;;;;;;;6285972;28;20027;-82
2023/05/20 17:06:26;;;;;;;19.87;16.07;;;;;;;;;;6297160;28;20841;-83
2023/05/20 17:09:27;;;;;;;17.00;12.80;;;;;;;;;;6295539;28;20077;-83
2023/05/20 17:12:27;;;;;;;15.65;11.98;;;;;;;;;;6297143;28;20031;-82
2023/05/20 17:15:27;;;;;;;20.80;13.60;;;;;;;;;;6317953;28;20024;-83
2023/05/20 17:18:28;;;;;;;25.03;16.27;;;;;;;;;;6282489;28;20029;-82
2023/05/20 17:21:28;;;;;;;29.47;19.27;;;;;;;;;;6309069;28;20028;-79
2023/05/20 17:24:28;;;;;;;18.53;12.50;;;;;;;;;;6298942;28;20074;-79
2023/05/20 17:27:28;;;;;;;22.17;13.27;;;;;;;;;;6287315;28;20094;-79
2023/05/20 17:30:28;;;;;;;24.20;15.27;;;;;;;;;;6294858;28;20344;-79
2023/05/20 17:33:30;;;;;;;22.83;14.20;;;;;;;;;;6289269;28;20124;-79
2023/05/20 17:36:31;;;;;;;25.42;14.93;;;;;;;;;;6290372;28;20102;-79
2023/05/20 17:39:31;;;;;;;50.57;30.63;;;;;;;;;;6304953;28;20020;-79
2023/05/20 17:42:32;;;;;;;27.55;18.33;;;;;;;;;;6309922;28;20020;-79